createdAt,value
2023-04-27T00:01:22.061Z,2.83
2023-04-27T00:03:51.129Z,2.83
2023-04-27T00:06:18.730Z,2.82
2023-04-27T00:08:46.088Z,2.83
2023-04-27T00:11:14.186Z,2.81
2023-04-27T00:13:41.555Z,2.80
2023-04-27T00:16:08.889Z,2.78
2023-04-27T00:18:37.058Z,2.78
2023-04-27T00:21:04.321Z,2.78
2023-04-27T00:23:31.736Z,2.79
2023-04-27T00:25:59.159Z,2.77
2023-04-27T00:28:26.852Z,2.76
2023-04-27T00:30:55.047Z,2.76
2023-04-27T00:33:22.370Z,2.74
2023-04-27T00:35:49.724Z,2.75
2023-04-27T00:38:17.011Z,2.75
2023-04-27T00:40:44.393Z,2.77
2023-04-27T00:43:11.777Z,2.81
2023-04-27T00:45:43.164Z,2.82
2023-04-27T00:48:11.741Z,2.86
2023-04-27T00:50:39.706Z,2.90
2023-04-27T00:53:09.828Z,2.94
2023-04-27T00:55:37.224Z,3.00
2023-04-27T00:58:04.641Z,3.04
2023-04-27T01:00:32.143Z,3.08
2023-04-27T01:03:01.459Z,3.16
2023-04-27T01:05:30.151Z,3.20
2023-04-27T01:07:58.498Z,3.21
2023-04-27T01:10:28.518Z,3.23
2023-04-27T01:12:55.983Z,3.27
2023-04-27T01:15:23.487Z,3.31
2023-04-27T01:18:01.407Z,3.34
2023-04-27T01:20:30.544Z,3.39
2023-04-27T01:22:58.876Z,3.41
2023-04-27T01:25:26.276Z,3.42
2023-04-27T01:27:54.478Z,3.44
2023-04-27T01:30:24.565Z,3.44
2023-04-27T01:32:52.701Z,3.45
2023-04-27T01:35:21.328Z,3.45
2023-04-27T01:37:48.576Z,3.45
2023-04-27T01:40:18.442Z,3.44
2023-04-27T01:42:47.648Z,3.42
2023-04-27T01:45:14.920Z,3.41
2023-04-27T01:47:42.196Z,3.37
2023-04-27T01:50:09.808Z,3.33
2023-04-27T01:52:37.194Z,3.34
2023-04-27T01:55:04.952Z,3.29
2023-04-27T01:57:32.343Z,3.28
2023-04-27T01:59:59.636Z,3.25
2023-04-27T02:02:27.570Z,3.23
2023-04-27T02:04:55.120Z,3.20
2023-04-27T02:07:22.437Z,3.15
2023-04-27T02:09:50.125Z,3.10
2023-04-27T02:12:17.369Z,3.07
2023-04-27T02:14:44.676Z,3.04
2023-04-27T02:17:12.155Z,3.02
2023-04-27T02:19:40.148Z,3.00
2023-04-27T02:22:12.974Z,2.95
2023-04-27T02:24:40.443Z,2.93
2023-04-27T02:27:07.821Z,2.90
2023-04-27T02:29:38.983Z,2.88
2023-04-27T02:32:06.880Z,2.86
2023-04-27T02:34:34.191Z,2.84
2023-04-27T02:37:01.834Z,2.81
2023-04-27T02:39:29.139Z,2.79
2023-04-27T02:41:56.305Z,2.76
2023-04-27T02:44:23.908Z,2.74
2023-04-27T02:46:51.726Z,2.71
2023-04-27T02:49:19.136Z,2.68
2023-04-27T02:51:46.542Z,2.67
2023-04-27T02:54:13.819Z,2.65
2023-04-27T02:56:44.411Z,2.64
2023-04-27T02:59:12.116Z,2.62
2023-04-27T03:01:39.988Z,2.62
2023-04-27T03:04:08.916Z,2.61
2023-04-27T03:06:36.432Z,2.59
2023-04-27T03:09:03.961Z,2.56
2023-04-27T03:11:31.301Z,2.54
2023-04-27T03:13:58.983Z,2.48
2023-04-27T03:16:26.232Z,2.44
2023-04-27T03:18:53.692Z,2.41
2023-04-27T03:21:21.048Z,2.39
2023-04-27T03:23:49.893Z,2.33
2023-04-27T03:26:17.504Z,2.31
2023-04-27T03:28:44.790Z,2.28
2023-04-27T03:31:15.550Z,2.25
2023-04-27T03:33:42.932Z,2.22
2023-04-27T03:36:11.266Z,2.19
2023-04-27T03:38:44.251Z,2.16
2023-04-27T03:41:12.733Z,2.14
2023-04-27T03:43:39.974Z,2.13
2023-04-27T03:46:10.220Z,2.11
2023-04-27T03:48:38.503Z,2.12
2023-04-27T03:51:06.915Z,2.12
2023-04-27T03:53:34.874Z,2.11
2023-04-27T03:56:02.469Z,2.09
2023-04-27T03:58:29.850Z,2.08
2023-04-27T04:01:14.861Z,2.08
2023-04-27T04:03:43.066Z,2.09
2023-04-27T04:06:11.065Z,2.07
2023-04-27T04:08:39.910Z,2.06
2023-04-27T04:11:07.594Z,2.05
2023-04-27T04:13:36.622Z,2.04
2023-04-27T04:16:09.476Z,2.03
2023-04-27T04:18:37.806Z,2.04
2023-04-27T04:21:06.458Z,2.05
2023-04-27T04:23:33.971Z,2.07
2023-04-27T04:26:03.009Z,2.09
2023-04-27T04:28:36.466Z,2.13
2023-04-27T04:31:05.979Z,2.17
2023-04-27T04:33:33.912Z,2.20
2023-04-27T04:36:04.892Z,2.24
2023-04-27T04:38:33.936Z,2.30
2023-04-27T04:41:01.580Z,2.40
2023-04-27T04:43:33.206Z,2.53
2023-04-27T04:46:04.148Z,2.81
2023-04-27T04:48:32.412Z,3.23
2023-04-27T04:50:59.640Z,3.51
2023-04-27T04:53:27.019Z,3.69
2023-04-27T04:55:56.856Z,3.78
2023-04-27T04:58:24.336Z,3.81
2023-04-27T05:00:51.699Z,3.92
2023-04-27T05:03:21.154Z,4.00
2023-04-27T05:05:48.696Z,4.02
2023-04-27T05:08:17.263Z,4.14
2023-04-27T05:10:51.611Z,4.40
2023-04-27T05:13:19.335Z,4.62
2023-04-27T05:15:46.802Z,4.56
2023-04-27T05:18:14.299Z,4.48
2023-04-27T05:20:41.933Z,4.34
2023-04-27T05:23:09.208Z,4.25
2023-04-27T05:25:41.715Z,4.17
2023-04-27T05:28:10.133Z,4.11
2023-04-27T05:30:37.485Z,4.06
2023-04-27T05:33:05.300Z,4.06
2023-04-27T05:35:33.983Z,4.03
2023-04-27T05:38:01.666Z,4.00
2023-04-27T05:40:29.250Z,4.06
2023-04-27T05:42:56.680Z,4.51
2023-04-27T05:45:24.071Z,4.80
2023-04-27T05:47:53.507Z,4.98
2023-04-27T05:50:21.707Z,5.20
2023-04-27T05:52:48.939Z,5.30
2023-04-27T05:55:16.249Z,5.37
2023-04-27T05:57:43.602Z,5.50
2023-04-27T06:00:12.704Z,5.84
2023-04-27T06:02:42.977Z,6.28
2023-04-27T06:05:10.767Z,6.85
2023-04-27T06:07:38.755Z,7.17
2023-04-27T06:10:09.140Z,7.31
2023-04-27T06:12:36.458Z,7.37
2023-04-27T06:15:08.464Z,7.37
2023-04-27T06:17:38.878Z,7.38
2023-04-27T06:20:09.719Z,7.35
2023-04-27T06:22:40.525Z,7.33
2023-04-27T06:25:10.738Z,7.35
2023-04-27T06:27:38.209Z,7.40
2023-04-27T06:30:06.512Z,7.35
2023-04-27T06:32:33.999Z,7.34
2023-04-27T06:35:04.766Z,7.50
2023-04-27T06:37:32.815Z,7.75
2023-04-27T06:40:00.217Z,8.17
2023-04-27T06:42:27.547Z,8.39
2023-04-27T06:44:56.420Z,8.38
2023-04-27T06:47:23.749Z,8.34
2023-04-27T06:49:51.745Z,8.24
2023-04-27T06:52:19.424Z,8.13
2023-04-27T06:54:47.122Z,8.00
2023-04-27T06:57:14.429Z,7.96
2023-04-27T06:59:42.298Z,7.99
2023-04-27T07:02:09.808Z,8.08
2023-04-27T07:04:40.751Z,8.12
2023-04-27T07:07:09.684Z,8.17
2023-04-27T07:09:37.562Z,8.22
2023-04-27T07:12:06.846Z,8.25
2023-04-27T07:14:34.140Z,8.25
2023-04-27T07:17:01.840Z,8.32
2023-04-27T07:19:29.301Z,8.49
2023-04-27T07:21:56.710Z,8.64
2023-04-27T07:24:24.128Z,8.83
2023-04-27T07:26:51.538Z,9.00
2023-04-27T07:29:26.452Z,9.17
2023-04-27T07:31:55.905Z,9.25
2023-04-27T07:34:24.216Z,9.28
2023-04-27T07:36:55.880Z,9.25
2023-04-27T07:39:24.063Z,9.28
2023-04-27T07:41:53.079Z,9.31
2023-04-27T07:44:21.678Z,9.32
2023-04-27T07:46:49.368Z,9.27
2023-04-27T07:49:17.220Z,9.26
2023-04-27T07:51:44.551Z,9.26
2023-04-27T07:54:12.436Z,9.25
2023-04-27T07:56:43.535Z,9.27
2023-04-27T07:59:11.356Z,9.32
2023-04-27T08:01:44.281Z,9.36
2023-04-27T08:06:41.352Z,9.45
2023-04-27T08:09:09.570Z,9.45
2023-04-27T08:11:36.909Z,9.55
2023-04-27T08:14:04.207Z,9.66
2023-04-27T08:16:31.617Z,9.80
2023-04-27T08:19:00.578Z,9.94
2023-04-27T08:21:30.540Z,10.00
2023-04-27T08:23:57.981Z,10.08
2023-04-27T08:26:26.464Z,10.11
2023-04-27T08:28:54.139Z,10.22
2023-04-27T08:31:22.143Z,10.33
2023-04-27T08:33:58.323Z,10.47
2023-04-27T08:36:26.835Z,10.62
2023-04-27T08:38:54.181Z,10.70
2023-04-27T08:41:22.474Z,10.75
2023-04-27T08:43:50.771Z,10.79
2023-04-27T08:46:20.632Z,10.82
2023-04-27T08:48:50.164Z,10.92
2023-04-27T08:51:17.400Z,11.04
2023-04-27T08:53:52.207Z,11.14
2023-04-27T08:56:19.975Z,11.20
2023-04-27T08:58:47.038Z,11.10
2023-04-27T09:01:14.083Z,11.02
2023-04-27T09:03:42.030Z,10.95
2023-04-27T09:06:09.464Z,10.80
2023-04-27T09:08:42.815Z,10.74
2023-04-27T09:11:10.302Z,10.77
2023-04-27T09:13:41.927Z,10.82
2023-04-27T09:16:09.345Z,10.90
2023-04-27T09:18:38.974Z,11.01
2023-04-27T09:21:07.339Z,11.02
2023-04-27T09:23:36.624Z,11.05
2023-04-27T09:26:08.205Z,11.05
2023-04-27T09:28:37.717Z,11.02
2023-04-27T09:31:05.260Z,11.04
2023-04-27T09:33:33.871Z,11.09
2023-04-27T09:36:02.102Z,11.14
2023-04-27T09:38:29.803Z,11.07
2023-04-27T09:40:57.300Z,11.02
2023-04-27T09:43:25.007Z,10.98
2023-04-27T09:45:52.066Z,11.00
2023-04-27T09:48:20.964Z,11.04
2023-04-27T09:50:49.168Z,11.11
2023-04-27T09:53:19.182Z,11.21
2023-04-27T09:55:46.391Z,11.32
2023-04-27T09:58:28.791Z,11.32
2023-04-27T10:00:58.930Z,11.38
2023-04-27T10:03:44.248Z,11.45
2023-04-27T10:06:32.612Z,11.39
2023-04-27T10:09:00.467Z,11.36
2023-04-27T10:11:54.790Z,11.38
2023-04-27T10:14:23.313Z,11.32
2023-04-27T10:16:54.731Z,11.25
2023-04-27T10:19:24.620Z,11.05
2023-04-27T10:21:55.271Z,10.95
2023-04-27T10:24:31.628Z,10.85
2023-04-27T10:27:03.424Z,10.78
2023-04-27T10:29:37.210Z,10.70
2023-04-27T10:32:33.799Z,10.59
2023-04-27T10:35:07.942Z,10.46
2023-04-27T10:37:41.584Z,10.48
2023-04-27T10:40:17.767Z,10.47
2023-04-27T10:42:45.866Z,10.45
2023-04-27T10:45:13.764Z,10.42
2023-04-27T10:47:45.708Z,10.39
2023-04-27T10:50:14.157Z,10.38
2023-04-27T10:52:44.521Z,10.41
2023-04-27T10:55:15.763Z,10.44
2023-04-27T10:57:53.837Z,10.49
2023-04-27T11:00:28.608Z,10.49
2023-04-27T11:02:56.947Z,10.51
2023-04-27T11:05:33.294Z,10.56
2023-04-27T11:08:07.578Z,10.58
2023-04-27T11:10:37.791Z,10.57
2023-04-27T11:13:09.278Z,10.55
2023-04-27T11:15:47.159Z,10.54
2023-04-27T11:18:15.809Z,10.53
2023-04-27T11:20:45.882Z,10.57
2023-04-27T11:23:23.034Z,10.58
2023-04-27T11:25:50.366Z,10.57
2023-04-27T11:28:20.099Z,10.56
2023-04-27T11:30:47.887Z,10.55
2023-04-27T11:33:15.304Z,10.58
2023-04-27T11:35:42.822Z,10.66
2023-04-27T11:38:15.746Z,10.80
2023-04-27T11:40:43.108Z,10.89
2023-04-27T11:43:16.362Z,10.98
2023-04-27T11:45:48.587Z,11.04
2023-04-27T11:48:15.922Z,11.11
2023-04-27T11:50:50.142Z,11.18
2023-04-27T11:53:18.808Z,11.17
2023-04-27T11:55:52.797Z,11.23
2023-04-27T11:58:21.129Z,11.19
2023-04-27T12:00:48.251Z,11.19
2023-04-27T12:03:16.092Z,11.18
2023-04-27T12:05:51.507Z,11.14
2023-04-27T12:08:18.919Z,11.12
2023-04-27T12:10:46.408Z,11.06
2023-04-27T12:13:14.288Z,10.99
2023-04-27T12:15:43.104Z,10.92
2023-04-27T12:18:10.463Z,10.83
2023-04-27T12:20:37.678Z,10.76
2023-04-27T12:23:04.741Z,10.68
2023-04-27T12:25:31.837Z,10.64
2023-04-27T12:27:58.884Z,10.61
2023-04-27T12:30:26.033Z,10.57
2023-04-27T12:32:53.725Z,10.53
2023-04-27T12:35:20.898Z,10.52
2023-04-27T12:37:49.645Z,10.47
2023-04-27T12:40:16.991Z,10.44
2023-04-27T12:42:44.188Z,10.37
2023-04-27T12:45:11.279Z,10.34
2023-04-27T12:47:58.287Z,10.34
2023-04-27T12:50:26.079Z,10.35
2023-04-27T12:52:53.229Z,10.42
2023-04-27T12:55:32.170Z,10.50
2023-04-27T12:58:00.561Z,10.61
2023-04-27T13:00:27.882Z,10.67
2023-04-27T13:02:55.729Z,10.74
2023-04-27T13:05:23.278Z,10.77
2023-04-27T13:07:50.420Z,10.77
2023-04-27T13:10:17.696Z,10.82
2023-04-27T13:12:44.806Z,10.86
2023-04-27T13:15:12.012Z,10.86
2023-04-27T13:17:43.526Z,10.88
2023-04-27T13:20:11.256Z,10.93
2023-04-27T13:22:40.882Z,11.03
2023-04-27T13:25:09.533Z,11.07
2023-04-27T13:27:36.828Z,11.13
2023-04-27T13:30:05.378Z,11.17
2023-04-27T13:32:32.624Z,11.16
2023-04-27T13:34:59.939Z,11.17
2023-04-27T13:37:27.394Z,11.16
2023-04-27T13:39:54.800Z,11.11
2023-04-27T13:42:24.022Z,11.08
2023-04-27T13:44:53.465Z,11.06
2023-04-27T13:47:20.607Z,11.06
2023-04-27T13:49:47.710Z,11.10
2023-04-27T13:52:14.878Z,11.12
2023-04-27T13:54:42.086Z,11.09
2023-04-27T13:57:09.157Z,11.04
2023-04-27T13:59:36.208Z,11.07
2023-04-27T14:02:03.781Z,11.08
2023-04-27T14:04:31.084Z,11.11
2023-04-27T14:06:58.587Z,11.19
2023-04-27T14:09:27.031Z,11.29
2023-04-27T14:11:57.236Z,11.35
2023-04-27T14:14:24.755Z,11.39
2023-04-27T14:16:56.913Z,11.38
2023-04-27T14:19:24.137Z,11.47
2023-04-27T14:21:51.543Z,11.55
2023-04-27T14:24:18.695Z,11.63
2023-04-27T14:26:47.581Z,11.63
2023-04-27T14:29:15.361Z,11.66
2023-04-27T14:31:43.047Z,11.61
2023-04-27T14:34:11.688Z,11.60
2023-04-27T14:36:38.795Z,11.59
2023-04-27T14:39:07.379Z,11.59
2023-04-27T14:41:35.609Z,11.63
2023-04-27T14:44:03.267Z,11.66
2023-04-27T14:46:30.441Z,11.63
2023-04-27T14:48:57.545Z,11.62
2023-04-27T14:51:26.954Z,11.59
2023-04-27T14:53:54.282Z,11.54
2023-04-27T14:56:23.199Z,11.49
2023-04-27T14:58:50.442Z,11.47
2023-04-27T15:01:17.790Z,11.46
2023-04-27T15:03:45.214Z,11.44
2023-04-27T15:06:12.440Z,11.37
2023-04-27T15:08:40.755Z,11.32
2023-04-27T15:11:08.014Z,11.32
2023-04-27T15:13:35.307Z,11.25
2023-04-27T15:16:02.561Z,11.18
2023-04-27T15:18:29.708Z,11.18
2023-04-27T15:20:58.216Z,11.11
2023-04-27T15:23:26.125Z,11.03
2023-04-27T15:25:57.715Z,11.00
2023-04-27T15:28:24.987Z,10.93
2023-04-27T15:30:52.063Z,10.86
2023-04-27T15:33:19.235Z,10.83
2023-04-27T15:35:46.695Z,10.79
2023-04-27T15:38:15.693Z,10.64
2023-04-27T15:40:42.852Z,10.53
2023-04-27T15:43:10.111Z,10.48
2023-04-27T15:45:37.192Z,10.44
2023-04-27T15:48:08.211Z,10.41
2023-04-27T15:50:35.641Z,10.38
2023-04-27T15:53:03.638Z,10.30
2023-04-27T15:55:33.167Z,10.19
2023-04-27T15:58:00.297Z,10.11
2023-04-27T16:00:27.415Z,10.08
2023-04-27T16:02:55.313Z,10.00
2023-04-27T16:05:22.420Z,9.94
2023-04-27T16:07:49.755Z,9.89
2023-04-27T16:10:16.901Z,9.84
2023-04-27T16:12:44.081Z,9.85
2023-04-27T16:15:11.792Z,9.79
2023-04-27T16:17:39.223Z,9.73
2023-04-27T16:20:07.111Z,9.64
2023-04-27T16:22:36.806Z,9.60
2023-04-27T16:25:10.302Z,9.61
2023-04-27T16:27:39.409Z,9.61
2023-04-27T16:30:07.569Z,9.57
2023-04-27T16:32:35.762Z,9.50
2023-04-27T16:35:03.588Z,9.47
2023-04-27T16:37:32.999Z,9.50
2023-04-27T16:40:02.601Z,9.50
2023-04-27T16:42:29.698Z,9.47
2023-04-27T16:44:57.001Z,9.41
2023-04-27T16:47:24.237Z,9.36
2023-04-27T16:49:51.655Z,9.33
2023-04-27T16:52:20.063Z,9.34
2023-04-27T16:54:47.208Z,9.38
2023-04-27T16:57:14.663Z,9.40
2023-04-27T16:59:43.352Z,9.38
2023-04-27T17:02:23.142Z,9.34
2023-04-27T17:04:52.902Z,9.34
2023-04-27T17:07:20.508Z,9.32
2023-04-27T17:09:47.851Z,9.27
2023-04-27T17:12:16.845Z,9.23
2023-04-27T17:14:46.493Z,9.15
2023-04-27T17:17:13.711Z,9.14
2023-04-27T17:19:40.777Z,9.08
2023-04-27T17:22:13.224Z,9.04
2023-04-27T17:24:42.459Z,9.03
2023-04-27T17:27:09.846Z,8.99
2023-04-27T17:29:37.365Z,9.02
2023-04-27T17:32:05.130Z,9.02
2023-04-27T17:34:32.318Z,9.03
2023-04-27T17:36:59.508Z,9.03
2023-04-27T17:39:26.883Z,9.03
2023-04-27T17:41:55.473Z,9.04
2023-04-27T17:44:22.764Z,9.00
2023-04-27T17:46:55.021Z,8.93
2023-04-27T17:49:22.705Z,8.91
2023-04-27T17:51:50.157Z,8.91
2023-04-27T17:54:17.394Z,8.94
2023-04-27T17:56:44.512Z,8.86
2023-04-27T17:59:11.646Z,8.80
2023-04-27T18:01:38.775Z,8.75
2023-04-27T18:04:07.431Z,8.69
2023-04-27T18:06:34.760Z,8.66
2023-04-27T18:09:02.086Z,8.59
2023-04-27T18:11:29.530Z,8.50
2023-04-27T18:13:58.450Z,8.49
2023-04-27T18:16:25.886Z,8.46
2023-04-27T18:18:53.106Z,8.39
2023-04-27T18:21:20.430Z,8.36
2023-04-27T18:23:47.635Z,8.30
2023-04-27T18:26:15.042Z,8.27
2023-04-27T18:28:42.330Z,8.27
2023-04-27T18:31:16.864Z,8.20
2023-04-27T18:33:44.768Z,8.15
2023-04-27T18:36:11.953Z,8.09
2023-04-27T18:38:39.854Z,8.03
2023-04-27T18:41:07.070Z,7.99
2023-04-27T18:43:36.990Z,7.96
2023-04-27T18:46:04.716Z,7.92
2023-04-27T18:48:32.441Z,7.88
2023-04-27T18:50:59.736Z,7.80
2023-04-27T18:53:27.427Z,7.72
2023-04-27T18:55:54.520Z,7.69
2023-04-27T18:58:21.610Z,7.69
2023-04-27T19:00:48.673Z,7.65
2023-04-27T19:03:15.993Z,7.60
2023-04-27T19:05:43.276Z,7.59
2023-04-27T19:08:10.728Z,7.58
2023-04-27T19:10:41.198Z,7.56
2023-04-27T19:13:08.725Z,7.56
2023-04-27T19:15:36.247Z,7.51
2023-04-27T19:18:10.631Z,7.47
2023-04-27T19:20:39.194Z,7.45
2023-04-27T19:23:07.936Z,7.40
2023-04-27T19:25:35.689Z,7.39
2023-04-27T19:28:02.867Z,7.37
2023-04-27T19:30:30.242Z,7.35
2023-04-27T19:32:57.470Z,7.33
2023-04-27T19:35:26.508Z,7.27
2023-04-27T19:37:53.634Z,7.22
2023-04-27T19:40:20.862Z,7.20
2023-04-27T19:42:48.235Z,7.18
2023-04-27T19:45:16.828Z,7.15
2023-04-27T19:47:44.140Z,7.13
2023-04-27T19:50:11.477Z,7.13
2023-04-27T19:52:39.201Z,7.09
2023-04-27T19:55:07.275Z,7.09
2023-04-27T19:57:34.560Z,7.10
2023-04-27T20:00:01.853Z,7.08
2023-04-27T20:02:40.678Z,7.06
2023-04-27T20:05:11.638Z,7.02
2023-04-27T20:07:38.898Z,6.98
2023-04-27T20:10:06.888Z,6.95
2023-04-27T20:15:05.450Z,6.90
2023-04-27T20:17:33.148Z,6.86
2023-04-27T20:20:01.225Z,6.81
2023-04-27T20:22:28.578Z,6.84
2023-04-27T20:24:59.126Z,6.81
2023-04-27T20:27:29.007Z,6.79
2023-04-27T20:29:56.135Z,6.73
2023-04-27T20:32:23.317Z,6.71
2023-04-27T20:34:50.444Z,6.69
2023-04-27T20:37:17.563Z,6.66
2023-04-27T20:39:52.579Z,6.63
2023-04-27T20:42:20.836Z,6.62
2023-04-27T20:44:49.715Z,6.62
2023-04-27T20:47:17.245Z,6.61
2023-04-27T20:49:44.480Z,6.61
2023-04-27T20:52:11.882Z,6.59
2023-04-27T20:54:40.160Z,6.56
2023-04-27T20:57:10.993Z,6.52
2023-04-27T20:59:41.089Z,6.50
2023-04-27T21:02:08.382Z,6.50
2023-04-27T21:04:36.335Z,6.49
2023-04-27T21:07:03.690Z,6.48
2023-04-27T21:09:31.613Z,6.47
2023-04-27T21:12:01.055Z,6.44
2023-04-27T21:14:28.240Z,6.44
2023-04-27T21:16:57.027Z,6.42
2023-04-27T21:19:24.632Z,6.39
2023-04-27T21:21:54.312Z,6.39
2023-04-27T21:24:21.757Z,6.35
2023-04-27T21:26:49.108Z,6.34
2023-04-27T21:29:16.618Z,6.31
2023-04-27T21:31:44.480Z,6.27
2023-04-27T21:34:12.515Z,6.27
2023-04-27T21:36:39.896Z,6.27
2023-04-27T21:39:10.042Z,6.25
2023-04-27T21:41:39.730Z,6.23
2023-04-27T21:44:10.288Z,6.24
2023-04-27T21:46:38.329Z,6.23
2023-04-27T21:49:05.835Z,6.20
2023-04-27T21:51:34.660Z,6.19
2023-04-27T21:54:07.508Z,6.15
2023-04-27T21:56:34.850Z,6.16
2023-04-27T21:59:02.566Z,6.14
2023-04-27T22:01:29.725Z,6.12
2023-04-27T22:03:59.124Z,6.08
2023-04-27T22:06:27.687Z,6.06
2023-04-27T22:08:54.800Z,6.01
2023-04-27T22:11:22.140Z,6.00
2023-04-27T22:13:49.743Z,6.00
2023-04-27T22:16:16.954Z,5.99
2023-04-27T22:18:44.029Z,5.99
2023-04-27T22:21:12.499Z,5.96
2023-04-27T22:23:40.611Z,5.95
2023-04-27T22:26:08.898Z,5.91
2023-04-27T22:28:36.318Z,5.89
2023-04-27T22:31:03.757Z,5.86
2023-04-27T22:33:31.365Z,5.85
2023-04-27T22:35:58.850Z,5.84
2023-04-27T22:38:26.115Z,5.83
2023-04-27T22:40:53.134Z,5.82
2023-04-27T22:43:20.175Z,5.81
2023-04-27T22:45:47.314Z,5.79
2023-04-27T22:48:14.376Z,5.79
2023-04-27T22:50:42.003Z,5.82
2023-04-27T22:53:09.029Z,5.80
2023-04-27T22:55:37.017Z,5.79
2023-04-27T22:58:04.162Z,5.79
2023-04-27T23:00:31.596Z,5.80
2023-04-27T23:02:58.779Z,5.81
2023-04-27T23:05:26.438Z,5.81
2023-04-27T23:07:53.691Z,5.80
2023-04-27T23:10:23.083Z,5.79
2023-04-27T23:12:50.794Z,5.76
2023-04-27T23:15:17.874Z,5.75
2023-04-27T23:17:44.965Z,5.74
2023-04-27T23:20:26.652Z,5.74
2023-04-27T23:22:58.322Z,5.73
2023-04-27T23:25:25.605Z,5.70
2023-04-27T23:27:53.172Z,5.69
2023-04-27T23:30:21.391Z,5.68
2023-04-27T23:32:48.468Z,5.66
2023-04-27T23:35:15.720Z,5.65
2023-04-27T23:37:42.917Z,5.64
2023-04-27T23:40:10.197Z,5.63
2023-04-27T23:42:37.368Z,5.61
2023-04-27T23:45:05.064Z,5.61
2023-04-27T23:47:33.894Z,5.60
2023-04-27T23:50:02.296Z,5.62
2023-04-27T23:52:29.973Z,5.61
2023-04-27T23:55:00.226Z,5.60
2023-04-27T23:57:27.328Z,5.60
2023-04-27T23:59:54.699Z,5.59
